createdAt,value
2024-05-09T00:02:26.221Z,99.90
2024-05-09T00:04:56.775Z,99.90
2024-05-09T00:07:27.445Z,99.90
2024-05-09T00:09:58.055Z,99.90
2024-05-09T00:12:28.571Z,99.90
2024-05-09T00:15:01.659Z,99.90
2024-05-09T00:17:36.114Z,99.90
2024-05-09T00:20:14.310Z,99.90
2024-05-09T00:22:50.960Z,99.90
2024-05-09T00:25:21.378Z,99.90
2024-05-09T00:27:51.765Z,99.90
2024-05-09T00:30:33.165Z,99.90
2024-05-09T00:33:08.093Z,99.90
2024-05-09T00:36:05.240Z,99.90
2024-05-09T00:38:35.701Z,99.90
2024-05-09T00:41:06.337Z,99.90
2024-05-09T00:43:36.978Z,99.90
2024-05-09T00:46:10.277Z,99.90
2024-05-09T00:48:40.845Z,99.90
2024-05-09T00:51:11.776Z,99.90
2024-05-09T00:53:42.901Z,99.90
2024-05-09T00:56:15.796Z,99.90
2024-05-09T00:58:46.729Z,99.90
2024-05-09T01:01:23.965Z,99.90
2024-05-09T01:03:54.696Z,99.90
2024-05-09T01:06:25.390Z,99.90
2024-05-09T01:08:55.833Z,99.90
2024-05-09T01:11:26.421Z,99.90
2024-05-09T01:13:54.331Z,99.90
2024-05-09T01:16:27.418Z,99.90
2024-05-09T01:18:58.143Z,99.90
2024-05-09T01:21:28.860Z,99.90
2024-05-09T01:24:01.878Z,99.90
2024-05-09T01:26:32.377Z,99.90
2024-05-09T01:29:02.819Z,99.90
2024-05-09T01:31:33.258Z,99.90
2024-05-09T01:34:03.778Z,99.90
2024-05-09T01:36:34.386Z,99.90
2024-05-09T01:39:07.559Z,99.90
2024-05-09T01:41:38.041Z,99.90
2024-05-09T01:44:08.661Z,99.90
2024-05-09T01:46:39.150Z,99.90
2024-05-09T01:49:10.173Z,99.90
2024-05-09T01:51:40.640Z,99.90
2024-05-09T01:54:13.915Z,99.90
2024-05-09T01:56:44.352Z,99.90
2024-05-09T01:59:14.867Z,99.90
2024-05-09T02:01:56.460Z,99.90
2024-05-09T02:04:28.554Z,99.90
2024-05-09T02:06:59.185Z,99.90
2024-05-09T02:09:32.275Z,99.90
2024-05-09T02:12:02.966Z,99.90
2024-05-09T02:14:33.642Z,99.90
2024-05-09T02:17:04.383Z,99.90
2024-05-09T02:19:54.902Z,99.90
2024-05-09T02:22:25.519Z,99.90
2024-05-09T02:24:58.559Z,99.90
2024-05-09T02:27:29.006Z,99.90
2024-05-09T02:29:59.427Z,99.90
2024-05-09T02:32:31.435Z,99.90
2024-05-09T02:35:02.087Z,99.90
2024-05-09T02:37:34.027Z,99.90
2024-05-09T02:40:07.113Z,99.90
2024-05-09T02:42:39.538Z,99.90
2024-05-09T02:45:08.021Z,99.90
2024-05-09T02:47:38.565Z,99.90
2024-05-09T02:50:08.284Z,99.90
2024-05-09T02:52:38.826Z,99.90
2024-05-09T02:55:09.262Z,99.90
2024-05-09T02:57:39.731Z,99.90
2024-05-09T03:00:15.181Z,99.90
2024-05-09T03:02:49.634Z,99.90
2024-05-09T03:05:17.622Z,99.90
2024-05-09T03:07:48.093Z,99.90
2024-05-09T03:10:25.377Z,99.90
2024-05-09T03:12:58.976Z,99.90
2024-05-09T03:15:26.999Z,99.90
2024-05-09T03:17:57.530Z,99.90
2024-05-09T03:20:32.501Z,99.90
2024-05-09T03:23:05.914Z,99.90
2024-05-09T03:25:37.180Z,99.90
2024-05-09T03:28:08.268Z,99.90
2024-05-09T03:30:41.352Z,99.90
2024-05-09T03:33:15.591Z,99.90
2024-05-09T03:35:44.292Z,99.90
2024-05-09T03:38:14.955Z,99.90
2024-05-09T03:40:51.361Z,99.90
2024-05-09T03:43:20.179Z,99.90
2024-05-09T03:45:52.703Z,99.90
2024-05-09T03:48:20.852Z,99.90
2024-05-09T03:50:51.655Z,99.90
2024-05-09T03:53:19.929Z,99.90
2024-05-09T03:55:54.094Z,99.90
2024-05-09T03:58:21.887Z,99.90
2024-05-09T04:00:52.431Z,99.90
2024-05-09T04:03:20.577Z,99.90
2024-05-09T04:05:51.573Z,99.90
2024-05-09T04:08:19.532Z,99.90
2024-05-09T04:10:50.098Z,99.90
2024-05-09T04:13:20.562Z,99.90
2024-05-09T04:15:51.114Z,99.90
2024-05-09T04:18:19.077Z,99.90
2024-05-09T04:20:49.799Z,99.90
2024-05-09T04:23:17.796Z,99.90
2024-05-09T04:25:48.343Z,99.90
2024-05-09T04:28:16.730Z,99.90
2024-05-09T04:30:49.878Z,99.90
2024-05-09T04:33:20.219Z,99.90
2024-05-09T04:35:51.605Z,99.90
2024-05-09T04:38:19.977Z,99.90
2024-05-09T04:40:50.685Z,99.90
2024-05-09T04:43:19.710Z,99.90
2024-05-09T04:45:53.640Z,99.90
2024-05-09T04:48:21.886Z,99.90
2024-05-09T04:50:55.084Z,99.90
2024-05-09T04:53:23.306Z,99.90
2024-05-09T04:55:54.044Z,99.90
2024-05-09T04:58:22.468Z,99.90
2024-05-09T05:00:55.585Z,99.90
2024-05-09T05:03:23.637Z,99.90
2024-05-09T05:05:54.201Z,99.90
2024-05-09T05:08:22.103Z,99.90
2024-05-09T05:10:52.718Z,99.90
2024-05-09T05:13:21.914Z,99.90
2024-05-09T05:15:58.370Z,99.90
2024-05-09T05:18:28.008Z,99.90
2024-05-09T05:20:59.782Z,99.90
2024-05-09T05:23:27.747Z,99.90
2024-05-09T05:25:58.382Z,99.90
2024-05-09T05:28:26.331Z,99.90
2024-05-09T05:30:59.520Z,99.90
2024-05-09T05:33:27.540Z,99.90
2024-05-09T05:35:58.239Z,99.90
2024-05-09T05:38:28.303Z,99.90
2024-05-09T05:40:59.449Z,99.90
2024-05-09T05:43:27.483Z,99.90
2024-05-09T05:46:00.646Z,99.90
2024-05-09T05:48:28.572Z,99.90
2024-05-09T05:51:01.884Z,99.90
2024-05-09T05:53:31.985Z,99.90
2024-05-09T05:56:02.552Z,99.90
2024-05-09T05:58:30.649Z,99.90
2024-05-09T06:01:04.081Z,99.90
2024-05-09T06:03:32.208Z,99.90
2024-05-09T06:06:06.073Z,99.90
2024-05-09T06:08:34.276Z,99.90
2024-05-09T06:11:05.722Z,99.90
2024-05-09T06:13:33.634Z,99.90
2024-05-09T06:16:07.287Z,99.90
2024-05-09T06:18:35.403Z,99.90
2024-05-09T06:21:06.233Z,99.90
2024-05-09T06:23:34.116Z,99.90
2024-05-09T06:26:04.859Z,99.90
2024-05-09T06:28:32.808Z,99.90
2024-05-09T06:31:07.683Z,99.90
2024-05-09T06:33:36.000Z,99.90
2024-05-09T06:36:06.853Z,99.90
2024-05-09T06:38:34.886Z,99.90
2024-05-09T06:41:06.063Z,99.90
2024-05-09T06:43:35.412Z,99.90
2024-05-09T06:46:08.688Z,99.90
2024-05-09T06:48:36.739Z,99.40
2024-05-09T06:51:07.825Z,97.60
2024-05-09T06:53:35.933Z,96.10
2024-05-09T06:56:06.700Z,94.40
2024-05-09T06:58:34.538Z,95.70
2024-05-09T07:01:05.215Z,95.90
2024-05-09T07:03:36.217Z,96.10
2024-05-09T07:06:07.075Z,94.10
2024-05-09T07:08:35.119Z,92.00
2024-05-09T07:11:05.873Z,92.20
2024-05-09T07:13:33.875Z,95.60
2024-05-09T07:16:06.267Z,96.80
2024-05-09T07:18:37.210Z,96.90
2024-05-09T07:21:08.889Z,97.30
2024-05-09T07:23:36.969Z,92.60
2024-05-09T07:26:07.926Z,91.20
2024-05-09T07:28:35.858Z,87.80
2024-05-09T07:31:06.598Z,85.70
2024-05-09T07:33:37.331Z,85.40
2024-05-09T07:36:08.183Z,88.00
2024-05-09T07:38:36.370Z,88.40
2024-05-09T07:41:09.109Z,88.40
2024-05-09T07:43:37.001Z,84.90
2024-05-09T07:47:13.916Z,86.50
2024-05-09T07:50:35.837Z,88.50
2024-05-09T07:53:20.905Z,86.20
2024-05-09T07:54:39.389Z,84.80
2024-05-09T07:57:09.985Z,82.60
2024-05-09T07:59:39.239Z,83.00
2024-05-09T08:02:10.313Z,84.50
2024-05-09T08:04:41.165Z,84.50
2024-05-09T08:07:11.917Z,87.60
2024-05-09T08:09:40.103Z,86.60
2024-05-09T08:12:12.972Z,88.30
2024-05-09T08:14:40.884Z,87.50
2024-05-09T08:17:12.513Z,88.50
2024-05-09T08:19:43.216Z,89.10
2024-05-09T08:22:13.900Z,90.00
2024-05-09T08:24:42.943Z,90.90
2024-05-09T08:27:13.493Z,91.50
2024-05-09T08:29:41.473Z,91.50
2024-05-09T08:32:13.262Z,90.80
2024-05-09T08:34:44.426Z,90.60
2024-05-09T08:37:22.375Z,90.10
2024-05-09T08:39:52.768Z,90.40
2024-05-09T08:42:27.360Z,92.20
2024-05-09T08:44:55.355Z,92.00
2024-05-09T08:47:26.191Z,91.40
2024-05-09T08:50:01.988Z,91.80
2024-05-09T08:52:42.030Z,91.70
2024-05-09T08:55:10.369Z,91.20
2024-05-09T08:57:42.102Z,91.10
2024-05-09T09:00:15.059Z,90.20
2024-05-09T09:02:53.699Z,91.00
2024-05-09T09:05:28.986Z,91.00
2024-05-09T09:08:00.092Z,90.80
2024-05-09T09:10:32.214Z,89.80
2024-05-09T09:13:07.453Z,89.30
2024-05-09T09:15:46.214Z,86.90
2024-05-09T09:18:18.703Z,86.80
2024-05-09T09:20:51.797Z,87.50
2024-05-09T09:23:22.778Z,93.90
2024-05-09T09:25:51.001Z,84.50
2024-05-09T09:28:21.908Z,85.10
2024-05-09T09:30:51.988Z,90.50
2024-05-09T09:33:26.160Z,84.30
2024-05-09T09:36:02.543Z,85.10
2024-05-09T09:38:34.659Z,86.10
2024-05-09T09:41:06.945Z,83.20
2024-05-09T09:43:40.058Z,83.50
2024-05-09T09:46:12.342Z,84.10
2024-05-09T09:48:44.326Z,83.20
2024-05-09T09:51:16.062Z,82.70
2024-05-09T09:53:47.449Z,82.80
2024-05-09T09:56:18.226Z,86.10
2024-05-09T09:58:52.860Z,85.80
2024-05-09T10:01:21.159Z,84.50
2024-05-09T10:03:56.531Z,84.90
2024-05-09T10:06:28.844Z,85.00
2024-05-09T10:09:01.977Z,86.20
2024-05-09T10:11:34.883Z,82.50
2024-05-09T10:14:09.555Z,87.80
2024-05-09T10:16:44.267Z,85.80
2024-05-09T10:19:26.549Z,85.20
2024-05-09T10:22:04.237Z,84.30
2024-05-09T10:24:53.350Z,78.50
2024-05-09T10:27:27.550Z,78.00
2024-05-09T10:29:59.123Z,77.30
2024-05-09T10:32:28.342Z,76.40
2024-05-09T10:35:11.957Z,76.70
2024-05-09T10:37:42.565Z,77.80
2024-05-09T10:40:26.278Z,82.60
2024-05-09T10:43:03.480Z,83.60
2024-05-09T10:45:38.575Z,82.60
2024-05-09T10:48:08.465Z,85.30
2024-05-09T10:50:43.922Z,82.70
2024-05-09T10:53:14.570Z,81.30
2024-05-09T10:55:45.067Z,76.30
2024-05-09T10:58:17.867Z,71.80
2024-05-09T11:00:48.835Z,70.50
2024-05-09T11:03:19.488Z,70.80
2024-05-09T11:05:52.906Z,75.50
2024-05-09T11:08:25.192Z,79.80
2024-05-09T11:10:56.979Z,77.70
2024-05-09T11:13:28.469Z,74.00
2024-05-09T11:16:03.767Z,74.00
2024-05-09T11:18:38.823Z,76.40
2024-05-09T11:21:15.557Z,76.10
2024-05-09T11:23:46.445Z,73.10
2024-05-09T11:26:22.864Z,71.80
2024-05-09T11:28:52.593Z,70.50
2024-05-09T11:31:23.615Z,71.90
2024-05-09T11:33:54.851Z,70.90
2024-05-09T11:36:29.046Z,71.70
2024-05-09T11:39:01.773Z,68.70
2024-05-09T11:41:36.624Z,67.90
2024-05-09T11:44:07.865Z,66.60
2024-05-09T11:46:42.182Z,67.70
2024-05-09T11:49:11.953Z,68.00
2024-05-09T11:51:45.942Z,69.10
2024-05-09T11:54:17.880Z,91.20
2024-05-09T11:56:48.465Z,72.80
2024-05-09T11:59:16.476Z,91.70
2024-05-09T12:01:47.016Z,72.00
2024-05-09T12:04:15.287Z,72.10
2024-05-09T12:06:46.511Z,67.50
2024-05-09T12:09:14.520Z,68.00
2024-05-09T12:11:47.766Z,68.70
2024-05-09T12:14:18.670Z,64.80
2024-05-09T12:16:49.681Z,62.00
2024-05-09T12:19:18.094Z,60.00
2024-05-09T12:21:50.569Z,59.50
2024-05-09T12:24:19.170Z,62.80
2024-05-09T12:26:52.656Z,58.00
2024-05-09T12:29:21.387Z,57.90
2024-05-09T12:31:53.462Z,57.70
2024-05-09T12:34:21.922Z,57.60
2024-05-09T12:36:53.694Z,56.10
2024-05-09T12:39:21.804Z,56.40
2024-05-09T12:41:56.042Z,55.00
2024-05-09T12:44:28.851Z,56.00
2024-05-09T12:47:00.820Z,59.90
2024-05-09T12:49:28.955Z,55.70
2024-05-09T12:52:02.456Z,55.70
2024-05-09T12:54:33.987Z,53.60
2024-05-09T12:57:09.275Z,55.50
2024-05-09T12:59:41.575Z,53.90
2024-05-09T13:02:15.952Z,60.80
2024-05-09T13:04:44.892Z,49.40
2024-05-09T13:07:15.807Z,50.70
2024-05-09T13:09:47.224Z,51.30
2024-05-09T13:12:21.599Z,51.80
2024-05-09T13:14:50.698Z,50.00
2024-05-09T13:17:21.315Z,50.50
2024-05-09T13:19:49.268Z,50.20
2024-05-09T13:22:19.893Z,48.40
2024-05-09T13:24:47.765Z,48.60
2024-05-09T13:27:21.006Z,47.60
2024-05-09T13:29:48.939Z,50.60
2024-05-09T13:32:19.530Z,50.40
2024-05-09T13:34:47.450Z,48.50
2024-05-09T13:37:18.320Z,47.70
2024-05-09T13:39:46.362Z,48.60
2024-05-09T13:42:17.057Z,45.30
2024-05-09T13:44:47.669Z,45.20
2024-05-09T13:47:18.685Z,45.70
2024-05-09T13:49:47.263Z,45.10
2024-05-09T13:52:17.823Z,42.20
2024-05-09T13:54:46.113Z,42.50
2024-05-09T13:57:16.914Z,43.20
2024-05-09T13:59:47.579Z,41.70
2024-05-09T14:02:18.631Z,40.90
2024-05-09T14:04:49.893Z,39.70
2024-05-09T14:07:20.698Z,39.30
2024-05-09T14:09:48.837Z,40.60
2024-05-09T14:12:19.594Z,40.20
2024-05-09T14:14:50.479Z,40.00
2024-05-09T14:17:21.347Z,44.30
2024-05-09T14:19:49.297Z,38.00
2024-05-09T14:22:19.868Z,37.80
2024-05-09T14:24:47.707Z,37.50
2024-05-09T14:27:18.372Z,38.00
2024-05-09T14:29:46.171Z,37.10
2024-05-09T14:32:19.463Z,36.40
2024-05-09T14:34:47.858Z,37.50
2024-05-09T14:37:18.517Z,35.80
2024-05-09T14:39:46.515Z,36.40
2024-05-09T14:42:17.023Z,34.40
2024-05-09T14:44:45.290Z,33.60
2024-05-09T14:47:18.980Z,33.50
2024-05-09T14:49:47.046Z,34.50
2024-05-09T14:52:17.723Z,34.20
2024-05-09T14:54:45.754Z,34.50
2024-05-09T14:57:16.247Z,31.30
2024-05-09T14:59:44.094Z,32.70
2024-05-09T15:02:27.201Z,32.00
2024-05-09T15:04:55.511Z,30.30
2024-05-09T15:07:26.174Z,29.30
2024-05-09T15:09:54.249Z,29.20
2024-05-09T15:12:24.859Z,29.60
2024-05-09T15:14:52.889Z,29.20
2024-05-09T15:17:23.569Z,28.30
2024-05-09T15:19:54.189Z,28.70
2024-05-09T15:22:25.154Z,28.80
2024-05-09T15:24:54.480Z,28.30
2024-05-09T15:27:25.188Z,30.00
2024-05-09T15:29:53.129Z,27.70
2024-05-09T15:32:23.770Z,27.50
2024-05-09T15:34:54.324Z,26.90
2024-05-09T15:37:25.387Z,26.80
2024-05-09T15:39:53.472Z,27.60
2024-05-09T15:42:24.498Z,26.90
2024-05-09T15:44:53.246Z,26.70
2024-05-09T15:47:23.964Z,24.80
2024-05-09T15:49:54.922Z,24.60
2024-05-09T15:52:25.741Z,24.30
2024-05-09T15:54:54.236Z,24.00
2024-05-09T15:57:24.885Z,24.20
2024-05-09T15:59:52.795Z,24.00
2024-05-09T16:02:23.241Z,23.70
2024-05-09T16:04:53.903Z,22.80
2024-05-09T16:07:24.972Z,22.40
2024-05-09T16:09:52.926Z,22.40
2024-05-09T16:12:23.590Z,21.80
2024-05-09T16:14:52.561Z,21.40
2024-05-09T16:17:45.016Z,21.00
2024-05-09T16:20:25.719Z,21.50
2024-05-09T16:23:03.843Z,21.30
2024-05-09T16:25:31.862Z,21.00
2024-05-09T16:28:03.001Z,20.30
2024-05-09T16:30:35.397Z,19.80
2024-05-09T16:33:07.515Z,19.30
2024-05-09T16:35:39.635Z,19.00
2024-05-09T16:38:10.318Z,19.00
2024-05-09T16:40:40.658Z,19.00
2024-05-09T16:43:13.263Z,19.10
2024-05-09T16:45:44.232Z,18.60
2024-05-09T16:48:15.766Z,18.10
2024-05-09T16:50:46.297Z,18.00
2024-05-09T16:53:16.940Z,17.90
2024-05-09T16:55:47.879Z,17.10
2024-05-09T16:58:18.551Z,21.80
2024-05-09T17:00:46.626Z,16.90
2024-05-09T17:03:17.433Z,15.90
2024-05-09T17:05:48.474Z,16.00
2024-05-09T17:08:20.659Z,14.90
2024-05-09T17:10:49.938Z,14.70
2024-05-09T17:13:21.384Z,14.20
2024-05-09T17:15:52.360Z,14.40
2024-05-09T17:18:23.151Z,14.50
2024-05-09T17:20:54.099Z,13.90
2024-05-09T17:23:24.739Z,13.50
2024-05-09T17:25:52.681Z,12.90
2024-05-09T17:28:23.250Z,13.10
2024-05-09T17:30:51.275Z,11.90
2024-05-09T17:33:21.998Z,12.00
2024-05-09T17:35:52.935Z,12.00
2024-05-09T17:38:24.371Z,11.70
2024-05-09T17:40:53.367Z,11.40
2024-05-09T17:43:24.120Z,10.50
2024-05-09T17:45:52.003Z,9.90
2024-05-09T17:48:22.786Z,10.10
2024-05-09T17:50:53.652Z,9.70
2024-05-09T17:53:24.240Z,9.30
2024-05-09T17:55:54.053Z,8.50
2024-05-09T17:58:25.008Z,8.60
2024-05-09T18:00:53.006Z,8.70
2024-05-09T18:03:24.791Z,7.90
2024-05-09T18:05:55.624Z,7.80
2024-05-09T18:08:26.207Z,7.40
2024-05-09T18:10:55.515Z,7.20
2024-05-09T18:13:26.458Z,7.20
2024-05-09T18:15:54.519Z,6.10
2024-05-09T18:20:55.411Z,5.60
2024-05-09T18:23:26.086Z,7.80
2024-05-09T18:25:55.107Z,5.20
2024-05-09T18:28:26.079Z,10.30
2024-05-09T18:30:53.955Z,5.10
2024-05-09T18:33:24.926Z,4.50
2024-05-09T18:35:55.725Z,4.40
2024-05-09T18:38:27.142Z,4.40
2024-05-09T18:40:55.081Z,4.10
2024-05-09T18:43:31.141Z,4.10
2024-05-09T18:46:04.316Z,3.70
2024-05-09T18:48:35.001Z,4.00
2024-05-09T18:51:06.074Z,3.90
2024-05-09T18:53:36.527Z,4.00
2024-05-09T18:56:04.954Z,4.00
2024-05-09T18:58:35.679Z,16.60
2024-05-09T19:01:05.648Z,3.10
2024-05-09T19:03:36.536Z,3.40
2024-05-09T19:06:07.526Z,3.30
2024-05-09T19:08:38.175Z,3.40
2024-05-09T19:11:06.295Z,3.10
2024-05-09T19:13:36.885Z,3.40
2024-05-09T19:16:05.510Z,3.00
2024-05-09T19:18:36.992Z,2.70
2024-05-09T19:21:07.607Z,3.60
2024-05-09T19:23:40.908Z,3.20
2024-05-09T19:26:12.251Z,3.50
2024-05-09T19:28:42.986Z,2.70
2024-05-09T19:31:13.409Z,2.60
2024-05-09T19:33:44.242Z,3.20
2024-05-09T19:36:14.996Z,2.60
2024-05-09T19:38:45.597Z,2.40
2024-05-09T19:41:13.511Z,2.20
2024-05-09T19:43:44.081Z,3.30
2024-05-09T19:46:12.474Z,1.90
2024-05-09T19:48:43.137Z,1.70
2024-05-09T19:51:13.673Z,1.70
2024-05-09T19:53:44.188Z,1.60
2024-05-09T19:56:12.147Z,1.60
2024-05-09T19:58:42.668Z,1.00
2024-05-09T20:01:10.539Z,1.80
2024-05-09T20:03:41.225Z,1.30
2024-05-09T20:06:09.523Z,14.50
2024-05-09T20:08:42.621Z,1.70
2024-05-09T20:11:10.840Z,2.00
2024-05-09T20:13:41.375Z,1.70
2024-05-09T20:16:09.278Z,1.50
2024-05-09T20:18:39.891Z,1.10
2024-05-09T20:21:07.970Z,1.00
2024-05-09T20:23:38.548Z,1.30
2024-05-09T20:26:09.273Z,1.00
2024-05-09T20:28:39.861Z,1.30
2024-05-09T20:31:07.948Z,1.00
2024-05-09T20:33:38.566Z,1.00
2024-05-09T20:36:06.791Z,1.70
2024-05-09T20:38:37.253Z,2.30
2024-05-09T20:41:05.499Z,1.80
2024-05-09T20:43:38.589Z,2.00
2024-05-09T20:46:06.662Z,1.60
2024-05-09T20:48:37.476Z,1.80
2024-05-09T20:51:05.865Z,1.80
2024-05-09T20:53:36.321Z,1.60
2024-05-09T20:56:04.398Z,1.70
2024-05-09T20:58:34.886Z,1.70
2024-05-09T21:01:05.617Z,2.90
2024-05-09T21:03:38.271Z,2.80
2024-05-09T21:06:06.623Z,2.10
2024-05-09T21:08:37.198Z,2.00
2024-05-09T21:11:05.368Z,1.70
2024-05-09T21:13:35.903Z,1.70
2024-05-09T21:16:08.367Z,1.10
2024-05-09T21:18:39.101Z,1.00
2024-05-09T21:21:07.024Z,1.00
2024-05-09T21:23:37.469Z,1.00
2024-05-09T21:26:07.170Z,1.00
2024-05-09T21:28:37.754Z,1.00
2024-05-09T21:31:09.030Z,11.10
2024-05-09T21:33:39.577Z,1.00
2024-05-09T21:36:09.751Z,1.00
2024-05-09T21:38:43.116Z,1.00
2024-05-09T21:41:11.025Z,1.00
2024-05-09T21:43:41.678Z,1.10
2024-05-09T21:46:12.210Z,1.00
2024-05-09T21:48:42.799Z,1.00
2024-05-09T21:51:14.095Z,1.00
2024-05-09T21:53:44.667Z,1.00
2024-05-09T21:56:12.540Z,1.00
2024-05-09T21:58:42.937Z,1.00
2024-05-09T22:01:13.530Z,1.00
2024-05-09T22:03:44.242Z,1.30
2024-05-09T22:06:13.037Z,1.30
2024-05-09T22:08:43.551Z,1.60
2024-05-09T22:11:21.059Z,3.00
2024-05-09T22:13:51.484Z,15.70
2024-05-09T22:16:22.542Z,3.20
2024-05-09T22:18:53.185Z,4.70
2024-05-09T22:21:21.109Z,5.10
2024-05-09T22:23:51.523Z,7.50
2024-05-09T22:26:26.083Z,9.20
2024-05-09T22:28:56.654Z,9.90
2024-05-09T22:31:27.106Z,11.00
2024-05-09T22:33:57.838Z,11.30
2024-05-09T22:36:26.193Z,13.70
2024-05-09T22:38:56.618Z,14.80
2024-05-09T22:41:24.436Z,16.20
2024-05-09T22:43:54.916Z,19.70
2024-05-09T22:46:22.882Z,44.50
2024-05-09T22:48:56.155Z,29.60
2024-05-09T22:51:23.992Z,34.80
2024-05-09T22:53:54.377Z,39.60
2024-05-09T22:56:27.376Z,44.60
2024-05-09T22:58:58.286Z,65.90
2024-05-09T23:01:27.027Z,99.90
2024-05-09T23:04:00.458Z,99.90
2024-05-09T23:06:28.408Z,99.90
2024-05-09T23:08:58.840Z,99.90
2024-05-09T23:11:26.720Z,99.90
2024-05-09T23:13:57.155Z,99.90
2024-05-09T23:16:25.071Z,99.90
2024-05-09T23:18:56.042Z,99.90
2024-05-09T23:21:26.699Z,99.90
2024-05-09T23:23:57.371Z,99.90
2024-05-09T23:26:25.184Z,99.90
2024-05-09T23:28:55.625Z,99.90
2024-05-09T23:31:23.594Z,99.90
2024-05-09T23:33:55.383Z,99.90
2024-05-09T23:36:27.554Z,99.90
2024-05-09T23:38:58.009Z,99.90
2024-05-09T23:41:25.942Z,99.90
2024-05-09T23:43:56.312Z,99.90
2024-05-09T23:46:24.356Z,99.90
2024-05-09T23:48:55.146Z,99.90
2024-05-09T23:51:25.647Z,99.90
2024-05-09T23:53:56.115Z,99.90
2024-05-09T23:56:26.741Z,99.90
2024-05-09T23:58:54.562Z,99.90
